Flight Track Log - Related Links

Times and Time Zones

All times are in EDT time to prevent confusion due to time zone crossing. See the SWA22 flight status page for this flight to view local times or setup timezone preferences in your user account.

Time Position Orientation Groundspeed Altitude Reporting Facility
EDT Latitude Longitude Course Direction KTS MPH feet Rate Location/Type
Tue 02:27:06 PM 32.8167 -96.8000 307° West 184 212 2,700  Level Dallas / Fort Worth TRACON
Tue 02:28:06 PM 32.7667 -96.7667 151° Southeast 211 243 6,100 3,026 Climbing Dallas / Fort Worth TRACON
Tue 02:29:01 PM 32.7167 -96.7667 180° South 210 242 8,500 1,669 Climbing Dallas / Fort Worth TRACON
Tue 02:30:55 PM 32.6633 -96.8953 244° Southwest 258 297 10,800 1,793 Climbing Fort Worth Center
Tue 02:31:55 PM 32.7117 -97.0133 296° West 309 356 13,700 2,900 Climbing Fort Worth Center
Tue 02:32:00 PM 33.1350 -97.4193 307° West  Level FlightAware Approximate
Tue 02:32:55 PM 32.7600 -97.1022 303° West 342 394 16,600  Level Fort Worth Center
Tue 02:33:55 PM 32.8164 -97.2108 302° West 353 406 19,800 2,450 Climbing Fort Worth Center
Tue 02:34:55 PM 32.8647 -97.3044 302° West 367 422 21,500 1,950 Climbing Fort Worth Center
Tue 02:35:55 PM 32.9294 -97.4283 302° West 390 449 23,700 1,900 Climbing Fort Worth Center
Tue 02:36:55 PM 32.9836 -97.5322 302° West 407 468 25,300 1,850 Climbing Fort Worth Center
Tue 02:37:55 PM 33.0439 -97.6464 302° West 413 475 27,400 1,950 Climbing Fort Worth Center
Tue 02:38:55 PM 33.1000 -97.7606 300° West 408 470 29,200 1,600 Climbing Fort Worth Center
Tue 02:39:55 PM 33.1394 -97.8872 290° West 408 470 30,600 1,550 Climbing Fort Worth Center
Tue 02:40:55 PM 33.1806 -98.0192 290° West 415 478 32,300 1,850 Climbing Fort Worth Center
Tue 02:41:55 PM 33.2194 -98.1411 291° West 410 472 34,300 1,600 Climbing Fort Worth Center
Tue 02:42:55 PM 33.2603 -98.2756 290° West 400 460 35,500 850 Climbing Fort Worth Center
Tue 02:43:55 PM 33.3033 -98.3778 297° West 395 455 36,000 250 Climbing Fort Worth Center
Tue 02:44:55 PM 33.3714 -98.4881 306° West 401 461 36,000  Level Fort Worth Center
Tue 02:45:55 PM 33.4394 -98.5983 307° West 406 467 36,000  Level Fort Worth Center
Tue 02:46:55 PM 33.5072 -98.7114 306° West 412 474 36,000  Level Fort Worth Center
Tue 02:47:55 PM 33.5850 -98.8397 306° West 424 488 36,000  Level Fort Worth Center
Tue 02:48:55 PM 33.6547 -98.9531 306° West 430 495 36,000  Level Fort Worth Center
Tue 02:49:55 PM 33.7200 -99.0717 304° West 430 495 36,000  Level Fort Worth Center
Tue 02:50:55 PM 33.7789 -99.1728 305° West 423 487 36,000  Level Fort Worth Center
Tue 02:51:55 PM 33.8419 -99.2917 303° West 428 493 36,000  Level Fort Worth Center
Tue 02:52:55 PM 33.8964 -99.4253 296° West 428 493 36,000  Level Fort Worth Center
Tue 02:53:55 PM 33.9506 -99.5467 298° West 423 487 36,000  Level Fort Worth Center
Tue 02:54:55 PM 34.0067 -99.6733 298° West 418 481 36,000 -250 Level Fort Worth Center
Tue 02:55:55 PM 34.0525 -99.7900 295° West 413 475 35,500 -600 Descending Fort Worth Center
Tue 02:56:55 PM 34.0983 -99.9117 294° West 403 464 34,800 -850 Descending Fort Worth Center
Tue 02:57:55 PM 34.1439 -100.0308 295° West 403 464 33,800 -1,200 Descending Fort Worth Center
Tue 02:58:55 PM 34.1892 -100.1503 295° West 395 455 32,400 -1,323 Descending Fort Worth Center
Tue 03:01:10 PM 34.3464 -100.4033 307° West 413 475 29,500 -1,127 Descending Albuquerque Center
Tue 03:02:12 PM 34.4158 -100.5092 309° West 408 470 28,700 -829 Descending Albuquerque Center
Tue 03:03:13 PM 34.4833 -100.6133 308° West 401 461 27,800 -927 Descending Albuquerque Center
Tue 03:04:15 PM 34.5514 -100.7186 308° West 397 457 26,800 -1,984 Descending Albuquerque Center
Tue 03:05:17 PM 34.6208 -100.8219 309° West 396 456 23,700 -3,415 Descending Albuquerque Center
Tue 03:06:18 PM 34.6931 -100.9372 307° West 420 483 19,800 -3,756 Descending Albuquerque Center
Tue 03:07:20 PM 34.7814 -101.0733 308° West 429 494 16,000 -3,073 Descending Albuquerque Center
Tue 03:08:21 PM 34.8469 -101.1800 307° West 405 466 13,500 -2,439 Descending Albuquerque Center
Tue 03:09:23 PM 34.9017 -101.2861 302° West 377 434 11,000 -1,694 Descending Albuquerque Center
Tue 03:10:25 PM 34.9547 -101.3850 303° West 362 417 10,000 -927 Descending Albuquerque Center
Tue 03:11:26 PM 35.0022 -101.4611 307° West 312 359 9,100 -1,073 Descending Albuquerque Center
Tue 03:12:28 PM 35.0578 -101.5186 320° Northwest 282 325 7,800 -1,016 Descending Albuquerque Center
Tue 03:13:30 PM 35.1056 -101.5689 319° Northwest 253 291 7,000 -1,122 Descending Albuquerque Center
Tue 03:14:31 PM 35.1422 -101.6069 320° Northwest 205 236 5,500 -1,366 Descending Albuquerque Center
Tue 03:15:33 PM 35.1750 -101.6386 322° Northwest 147 169 4,200 -726 Descending Albuquerque Center
Tue 03:16:35 PM 35.1997 -101.6636 320° Northwest 126 145 4,000 -293 Descending Albuquerque Center
Tue 03:17:36 PM 35.2239 -101.6892 319° Northwest 117 135 3,600 -393 Descending Albuquerque Center

Login

Don't have an account? Register now (free) for customized features, flight alerts, and more!